Create Tblcommutelog Verified Points Advance Search
| # | Trip ID | Id Commuter | Trip Date | Trip Num | Current Lat | Current Lng | Delta Distance | Current Time | Activity | Activity Confidence | Current Speed | |
|---|---|---|---|---|---|---|---|---|---|---|---|---|
| 69921 | 250910_788381_16460160_0702 | 788381 | (not set) | (not set) | 38.878886862709 | -76.995375000223 | 6.37 | 2025-09-10 07:32:58 | in_vehicle | 100 | 5.8159807594303 | |
| 69922 | 250910_787617_6461772_0655 | 787617 | (not set) | (not set) | 38.918336612016 | -76.929844098348 | 14.8426 | 2025-09-10 07:33:02 | in_vehicle | 100 | 4.0546460790187 | |
| 69923 | 250910_669170_16500693_0657 | 669170 | (not set) | (not set) | 39.208777499985 | -77.379386986666 | 20.3493 | 2025-09-10 07:33:04 | in_vehicle | 100 | 6.3658390479852 | |
| 69924 | 250910_773255_16502696_0716 | 773255 | (not set) | (not set) | 38.897695386065 | -77.033746392653 | 2.2735 | 2025-09-10 07:33:05 | on_bicycle | 100 | 3.7998337013957 | |
| 69925 | 250910_772259_16460160_0723 | 772259 | (not set) | (not set) | 39.0218132 | -77.1029736 | 2.3787 | 2025-09-10 07:33:05 | still | 33 | 6.2317272702889 | |
| 69926 | 250910_788596_16514878_0726 | 788596 | (not set) | (not set) | 38.816957617538 | -77.052410765853 | 0.2276 | 2025-09-10 07:33:06 | on_foot | 100 | 0.63032535517269 | |
| 69927 | 250910_631037_6428227_0647 | 631037 | (not set) | (not set) | 39.037479862915 | -76.982487335175 | 23.8021 | 2025-09-10 07:33:06 | on_bicycle | 100 | 0.77784831063864 | |
| 69928 | 250910_788596_16514878_0727 | 788596 | (not set) | (not set) | 38.816957617538 | -77.052410765853 | 0.2276 | 2025-09-10 07:33:06 | on_foot | 100 | 0.63032535517269 | |
| 69929 | 250910_739141_6438355_0710 | 739141 | (not set) | (not set) | 38.879067987956 | -77.057069860263 | 20.9918 | 2025-09-10 07:33:07 | unknown | 100 | 1.4439368065303 | |
| 69930 | 250910_787783_6461772_0709 | 787783 | (not set) | (not set) | 38.879053920449 | -77.057070769069 | 20.9199 | 2025-09-10 07:33:07 | in_vehicle | 100 | 1.4975815176089 | |
| 69931 | 250910_760011_16512150_0719 | 760011 | (not set) | (not set) | 38.90329388404 | -77.039780148618 | 0.9073 | 2025-09-10 07:33:07 | in_vehicle | 100 | -0.44703925898772 | |
| 69932 | 250910_760011_16512150_0719 | 760011 | (not set) | (not set) | 38.90329388404 | -77.039780148618 | 0.9073 | 2025-09-10 07:33:07 | in_vehicle | 100 | -0.44703925898772 | |
| 69933 | 250910_785415_16477364_0659 | 785415 | (not set) | (not set) | 39.332011682165 | -76.609395537077 | 4.9846 | 2025-09-10 07:33:07 | in_vehicle | 100 | 5.570109166987 | |
| 69934 | 250910_788422_16420004_0622 | 788422 | (not set) | (not set) | 39.163309544946 | -76.697228072704 | 34.6251 | 2025-09-10 07:33:08 | in_vehicle | 100 | 14.899818502061 | |
| 69935 | 250910_780583_16465223_0729 | 780583 | (not set) | (not set) | 38.7689821 | -77.0159489 | 0.5036 | 2025-09-10 07:33:07 | in_vehicle | 100 | 4.8906094933257 | |
| 69936 | 250910_780583_16465223_0729 | 780583 | (not set) | (not set) | 38.7689821 | -77.0159489 | 0.5036 | 2025-09-10 07:33:07 | in_vehicle | 100 | 4.8906094933257 | |
| 69937 | 250910_780583_16465223_0729 | 780583 | (not set) | (not set) | 38.7689821 | -77.0159489 | 0.5036 | 2025-09-10 07:33:07 | in_vehicle | 100 | 4.8906094933257 | |
| 69938 | 250910_781336_16450333_0647 | 781336 | (not set) | (not set) | 38.921214031993 | -77.217892697086 | 18.2889 | 2025-09-10 07:33:08 | in_vehicle | 100 | 5.8293919371999 | |
| 69939 | 250910_781336_16450333_0647 | 781336 | (not set) | (not set) | 38.921214031993 | -77.217892697086 | 18.2889 | 2025-09-10 07:33:08 | in_vehicle | 100 | 5.8293919371999 | |
| 69940 | 250910_781336_16450333_0647 | 781336 | (not set) | (not set) | 38.921214031993 | -77.217892697086 | 18.2889 | 2025-09-10 07:33:08 | in_vehicle | 100 | 5.8293919371999 |